Ottumwa, IA (52501)

7:00 PM CST on December 04, 2016 (GMT -0600)
East | | Change Station

Elev 833 ft 41.03 °N, 92.40 °W | Updated 5 minutes ago

Overcast
Overcast
34.9 °F
Feels Like 35 °F
N
3.0
Wind Variable Wind from SW
Gusts 6.0 mph

Today
High -- | Low -- °F
--% Chance of Precip.
Yesterday
High -- | Low -- °F
Precip. -- in
Pressure 29.96 in
Visibility 10.0 miles
Clouds Overcast 1300 ft
Windchill 35 °F
Dew Point 31 °F
Humidity 87%
Rainfall 0.58 in
Snow Depth Not available.
7:18 AM 4:41 PM
Waxing Crescent, 27% visible
METAR KOTM 050053Z AUTO 24009KT 10SM OVC013 02/M01 A2993 RMK AO2 SLP144 T00221006
Pressure 29.96 in
Visibility 10.0 miles
Clouds Overcast 1300 ft
Windchill 35 °F
Dew Point 31 °F
Humidity 87%
Rainfall 0.58 in
Snow Depth Not available.
7:18 AM 4:41 PM
Waxing Crescent, 27% visible
METAR KOTM 050053Z AUTO 24009KT 10SM OVC013 02/M01 A2993 RMK AO2 SLP144 T00221006

10-Day Weather Forecast

Almanac

Astronomy

Dec. 04, 2016 Rise Set
Actual Time
Civil Twilight
Nautical Twilight
Astronomical Twilight
Moon
Length of Visible Light
Length of Day
Tomorrow will be .
, % of the Moon is Illuminated

Today's Extremes

State Highs State Lows

Community

WunderPhotos

Upload Photos

1,955,729 photos uploaded!

WunderBlog® & News

Nearby

Air Quality

  Air Quality AQ Index Pollutant
Not available.

Snow Depth

Station Depth Elevation

Earthquake Activity

City Distance Mag. Time & Date
Minimum magnitude displayed is 2.5.

Coastal Water Temperatures

Place Temperature

Stations

Nearby Weather Stations

Station Location Temp. Windchill Dew Point Humidity Wind Precip. Elev Updated Type
                   

Watches & Warnings

There are currently no watches in effect.